Little York, New Jersey
Current Conditions -  °F | °C
As of 7:51 PM on Friday 28 Nov 2014 (Local Time) from KABE Reporting Station
Clear Clear  
Wind Chill: 26°   Ceiling: Unl
Heat Index: 26°   Visibility: 10mi
Dew Point: 13°   Wind: 0mph
Humidity: 58%   Direction: NA
Pressure: 30.25"   Gusts: NA
Location:  40.61°N, 75.08°W
Report Text: KABE 290051Z 00000KT 10SM CLR M03/M11 A3025 RMK AO2 SLP248 T10331106 $
Loading
Personal Weather Stations






























Interactive Weather Map New forecast layout! Learn more

10-Day Weather Forecast

Advertisements
Track Severe Weather on mobile